Time;durP1;ratioP1;P1;durP2;ratioP2;P2;SDS_P1;SDS_P2;PMS_P1;PMS_P2;Temp;Humidity;BMP_temperature;BMP_pressure;BME280_temperature;BME280_humidity;BME280_pressure;Samples;Min_cycle;Max_cycle;Signal;HPM_P1;HPM_P2
2022/09/25 00:01:11;;;;;;;16.70;13.63;;;13.60;99.90;;;;;;5067666;28;20470;-56
2022/09/25 00:03:40;;;;;;;16.87;15.07;;;13.50;99.90;;;;;;5069538;28;20454;-55
2022/09/25 00:06:10;;;;;;;16.90;14.40;;;13.50;99.90;;;;;;5069804;28;20449;-55
2022/09/25 00:08:38;;;;;;;15.73;14.20;;;13.40;99.90;;;;;;5067556;28;21081;-55
2022/09/25 00:11:07;;;;;;;17.80;15.40;;;13.30;99.90;;;;;;5069911;28;20444;-55
2022/09/25 00:13:35;;;;;;;15.57;13.93;;;13.30;99.90;;;;;;5070101;28;20444;-56
2022/09/25 00:16:03;;;;;;;18.60;16.43;;;13.30;99.90;;;;;;5067377;28;20448;-55
2022/09/25 00:21:17;;;;;;;18.00;16.10;;;13.30;99.90;;;;;;5071230;28;20471;-56
2022/09/25 00:23:45;;;;;;;16.03;14.47;;;13.30;99.90;;;;;;5071053;28;20455;-56
2022/09/25 00:26:13;;;;;;;17.57;15.97;;;13.40;99.90;;;;;;5073580;28;20481;-55
2022/09/25 00:28:41;;;;;;;17.00;15.30;;;13.50;99.90;;;;;;5073366;28;20487;-56
2022/09/25 00:31:09;;;;;;;17.07;15.20;;;13.50;99.90;;;;;;5070722;28;20456;-55
2022/09/25 00:33:37;;;;;;;15.03;13.53;;;13.50;99.90;;;;;;5073490;28;20443;-55
2022/09/25 00:36:06;;;;;;;15.20;13.73;;;13.60;99.90;;;;;;5073345;28;20444;-55
2022/09/25 00:38:37;;;;;;;14.63;13.13;;;13.50;99.90;;;;;;5070519;28;20449;-55
2022/09/25 00:41:06;;;;;;;15.70;13.87;;;13.50;99.90;;;;;;5073320;28;20428;-55
2022/09/25 00:43:37;;;;;;;15.30;13.77;;;13.40;99.90;;;;;;5072592;28;20486;-56
2022/09/25 00:46:09;;;;;;;15.47;13.87;;;13.30;99.90;;;;;;5070520;28;20436;-55
2022/09/25 00:48:48;;;;;;;14.67;13.17;;;13.30;99.90;;;;;;5072996;28;21020;-56
2022/09/25 00:51:18;;;;;;;14.80;12.97;;;13.30;99.90;;;;;;5072493;28;20456;-55
2022/09/25 00:53:47;;;;;;;13.13;11.80;;;13.20;99.90;;;;;;5071005;28;20478;-55
2022/09/25 00:56:15;;;;;;;14.90;12.90;;;13.10;99.90;;;;;;5072949;28;20531;-55
2022/09/25 00:58:42;;;;;;;15.37;13.80;;;13.10;99.90;;;;;;5072492;28;20459;-55
2022/09/25 01:01:10;;;;;;;14.50;13.20;;;13.10;99.90;;;;;;5070681;28;20947;-55
2022/09/25 01:03:40;;;;;;;14.00;12.60;;;13.10;99.90;;;;;;5072738;28;20471;-55
2022/09/25 01:06:09;;;;;;;13.40;12.00;;;13.10;99.90;;;;;;5072308;28;20436;-55
2022/09/25 01:08:37;;;;;;;13.63;12.33;;;13.10;99.90;;;;;;5070785;28;20526;-55
2022/09/25 01:11:06;;;;;;;14.47;12.77;;;13.20;99.90;;;;;;5072464;28;20794;-55
2022/09/25 01:13:33;;;;;;;13.00;11.67;;;13.20;99.90;;;;;;5072369;28;20531;-55
2022/09/25 01:16:08;;;;;;;15.53;13.93;;;13.30;99.90;;;;;;5069580;28;20449;-55
2022/09/25 01:18:49;;;;;;;13.90;12.20;;;13.30;99.90;;;;;;5072338;28;20782;-56
2022/09/25 01:21:25;;;;;;;15.23;12.67;;;13.30;99.90;;;;;;5072166;28;20551;-56
2022/09/25 01:24:18;;;;;;;16.23;12.00;;;13.30;99.90;;;;;;5070363;28;20523;-56
2022/09/25 01:27:31;;;;;;;15.30;12.73;;;13.20;99.90;;;;;;5072270;28;20425;-55
2022/09/25 01:30:07;;;;;;;12.40;11.17;;;13.20;99.90;;;;;;5070039;28;21057;-55
2022/09/25 01:32:41;;;;;;;13.90;12.30;;;13.20;99.90;;;;;;5070454;28;20827;-55
2022/09/25 01:35:17;;;;;;;11.80;10.57;;;13.20;99.90;;;;;;5072232;28;20970;-55
2022/09/25 01:37:53;;;;;;;13.27;11.50;;;13.30;99.90;;;;;;5070314;28;20535;-55
2022/09/25 01:40:27;;;;;;;13.00;10.30;;;13.30;99.90;;;;;;5071824;28;20448;-55
2022/09/25 01:43:01;;;;;;;11.33;10.23;;;13.30;99.90;;;;;;5071863;28;20518;-55
2022/09/25 01:45:36;;;;;;;12.87;10.33;;;13.30;99.90;;;;;;5069819;28;20512;-55
2022/09/25 01:48:06;;;;;;;12.60;11.30;;;13.20;99.90;;;;;;5071768;28;20998;-54
2022/09/25 01:50:38;;;;;;;11.73;9.67;;;13.30;99.90;;;;;;5071541;28;20488;-55
2022/09/25 01:53:11;;;;;;;12.03;10.90;;;13.30;99.90;;;;;;5069436;28;20463;-55
2022/09/25 01:55:44;;;;;;;13.20;10.20;;;13.30;99.90;;;;;;5071741;28;20480;-55
2022/09/25 01:58:19;;;;;;;11.87;10.73;;;13.30;99.90;;;;;;5071795;28;20425;-55
2022/09/25 02:00:54;;;;;;;12.30;10.80;;;13.30;99.90;;;;;;5069386;28;20455;-55
2022/09/25 02:03:26;;;;;;;12.57;11.37;;;13.30;99.90;;;;;;5071730;28;20436;-55
2022/09/25 02:05:57;;;;;;;12.63;11.33;;;13.30;99.90;;;;;;5071514;28;20767;-55
2022/09/25 02:08:28;;;;;;;10.90;9.53;;;13.30;99.90;;;;;;5069188;28;20448;-55
2022/09/25 02:11:01;;;;;;;11.50;10.30;;;13.30;99.90;;;;;;5071602;28;20436;-55
2022/09/25 02:13:35;;;;;;;14.20;10.00;;;13.30;99.90;;;;;;5071541;28;20529;-55
2022/09/25 02:16:10;;;;;;;11.20;10.00;;;13.30;99.90;;;;;;5069299;28;20464;-55
2022/09/25 02:21:29;;;;;;;19.87;10.57;;;13.30;99.90;;;;;;5070796;28;20949;-54
2022/09/25 02:24:04;;;;;;;12.00;10.90;;;13.30;99.90;;;;;;5070527;28;20454;-55
2022/09/25 02:26:34;;;;;;;13.60;10.10;;;13.30;99.90;;;;;;5071388;28;20424;-55
2022/09/25 02:29:02;;;;;;;10.63;9.63;;;13.40;99.90;;;;;;5068698;28;20484;-55
2022/09/25 02:31:37;;;;;;;11.20;9.50;;;13.40;99.90;;;;;;5071007;28;20480;-56
2022/09/25 02:34:04;;;;;;;10.20;9.27;;;13.40;99.90;;;;;;5070871;28;20425;-55
2022/09/25 02:36:32;;;;;;;10.33;9.30;;;13.40;99.90;;;;;;5068844;28;20452;-56
2022/09/25 02:39:02;;;;;;;11.00;9.87;;;13.50;99.90;;;;;;5070936;28;20456;-55
2022/09/25 02:41:41;;;;;;;11.87;10.87;;;13.50;99.90;;;;;;5070582;28;20472;-55
2022/09/25 02:44:16;;;;;;;12.33;10.90;;;13.50;99.90;;;;;;5068465;28;20783;-56
2022/09/25 02:46:59;;;;;;;14.03;10.30;;;13.40;99.90;;;;;;5070922;28;20531;-56
2022/09/25 02:49:39;;;;;;;12.53;11.23;;;13.40;99.90;;;;;;5070481;28;20460;-55
2022/09/25 02:52:11;;;;;;;11.93;10.70;;;13.40;99.90;;;;;;5068745;28;20468;-55
2022/09/25 02:54:44;;;;;;;13.77;10.90;;;13.50;99.90;;;;;;5070507;28;20463;-55
2022/09/25 02:57:16;;;;;;;11.40;10.20;;;13.60;99.90;;;;;;5070613;28;20428;-55
2022/09/25 02:59:50;;;;;;;12.13;10.90;;;13.60;99.90;;;;;;5068422;28;20928;-55
2022/09/25 03:02:20;;;;;;;12.50;11.20;;;13.60;99.90;;;;;;5070349;28;20536;-55
2022/09/25 03:04:49;;;;;;;12.23;11.07;;;13.70;99.90;;;;;;5070659;28;20429;-55
2022/09/25 03:07:17;;;;;;;14.50;11.80;;;13.70;99.90;;;;;;5068274;28;20547;-55
2022/09/25 03:09:46;;;;;;;12.53;10.87;;;13.60;99.90;;;;;;5070025;28;20484;-55
2022/09/25 03:12:14;;;;;;;13.50;12.07;;;13.50;99.90;;;;;;5070717;28;20456;-55
2022/09/25 03:14:42;;;;;;;14.90;13.47;;;13.60;99.90;;;;;;5068413;28;20448;-55
2022/09/25 03:17:11;;;;;;;15.87;14.27;;;13.60;99.90;;;;;;5070146;28;20816;-55
2022/09/25 03:19:39;;;;;;;12.40;11.20;;;13.60;99.90;;;;;;5070236;28;20443;-55
2022/09/25 03:22:06;;;;;;;16.20;13.07;;;13.50;99.90;;;;;;5068125;28;20475;-55
2022/09/25 03:24:33;;;;;;;14.57;12.97;;;13.50;99.90;;;;;;5070124;28;20448;-55
2022/09/25 03:27:01;;;;;;;16.57;14.63;;;13.50;99.90;;;;;;5070525;28;20460;-55
2022/09/25 03:29:29;;;;;;;18.10;16.20;;;13.50;99.90;;;;;;5067911;28;20484;-56
2022/09/25 03:31:57;;;;;;;17.77;15.77;;;13.60;99.90;;;;;;5070147;28;20471;-55
2022/09/25 03:34:24;;;;;;;18.10;16.23;;;13.60;99.90;;;;;;5069980;28;20460;-55
2022/09/25 03:36:52;;;;;;;18.10;16.20;;;13.50;99.90;;;;;;5067845;28;20448;-55
2022/09/25 03:39:20;;;;;;;17.77;15.87;;;13.50;99.90;;;;;;5069984;28;20441;-55
2022/09/25 03:41:47;;;;;;;15.07;13.47;;;13.50;99.90;;;;;;5069107;28;20460;-55
2022/09/25 03:44:14;;;;;;;16.00;14.37;;;13.50;99.90;;;;;;5067814;28;20505;-55
2022/09/25 03:46:41;;;;;;;13.30;11.47;;;13.50;99.90;;;;;;5070117;28;20452;-55
2022/09/25 03:49:10;;;;;;;12.33;11.03;;;13.50;99.90;;;;;;5069921;28;20480;-55
2022/09/25 03:51:37;;;;;;;18.17;11.63;;;13.40;99.90;;;;;;5067494;28;20468;-55
2022/09/25 03:54:06;;;;;;;18.67;13.43;;;13.50;99.90;;;;;;5070015;28;20451;-55
2022/09/25 03:56:37;;;;;;;13.10;11.83;;;13.60;99.90;;;;;;5072005;28;20461;-55
2022/09/25 03:59:05;;;;;;;14.57;13.07;;;13.60;99.90;;;;;;5071880;28;20554;-55
2022/09/25 04:01:33;;;;;;;16.50;14.40;;;13.70;99.90;;;;;;5073962;28;20456;-55
2022/09/25 04:04:02;;;;;;;16.47;13.20;;;13.70;99.90;;;;;;5073772;28;20889;-56
2022/09/25 04:06:29;;;;;;;17.70;15.23;;;13.70;99.90;;;;;;5071694;28;20444;-55
2022/09/25 04:08:56;;;;;;;18.97;16.10;;;13.70;99.90;;;;;;5074165;28;20446;-55
2022/09/25 04:11:25;;;;;;;20.10;18.03;;;13.70;99.90;;;;;;5073561;28;20460;-56
2022/09/25 04:13:52;;;;;;;22.57;19.33;;;13.70;99.90;;;;;;5071457;28;20542;-55
2022/09/25 04:16:20;;;;;;;20.90;18.03;;;13.70;99.90;;;;;;5073885;28;20440;-55
2022/09/25 04:18:48;;;;;;;17.37;15.53;;;13.60;99.90;;;;;;5073233;28;20802;-55
2022/09/25 04:21:16;;;;;;;21.77;19.67;;;13.60;99.90;;;;;;5071108;28;20839;-55
2022/09/25 04:24:47;;;;;;;23.40;20.90;;;13.60;99.90;;;;;;5073428;28;20945;-55
2022/09/25 04:26:33;;;;;;;23.40;20.93;;;13.50;99.90;;;;;;5073303;28;20445;-55
2022/09/25 04:29:00;;;;;;;24.33;21.67;;;13.40;99.90;;;;;;5071307;28;20471;-55
2022/09/25 04:31:28;;;;;;;26.00;21.97;;;13.40;99.90;;;;;;5073197;28;20890;-55
2022/09/25 04:33:54;;;;;;;24.13;21.30;;;13.40;99.90;;;;;;5073204;28;20452;-55
2022/09/25 04:36:21;;;;;;;22.17;19.70;;;13.40;99.90;;;;;;5071060;28;20526;-55
2022/09/25 04:38:49;;;;;;;23.07;20.20;;;13.40;99.90;;;;;;5073058;28;20961;-55
2022/09/25 04:41:18;;;;;;;28.40;21.00;;;13.40;99.90;;;;;;5073120;28;20566;-54
2022/09/25 04:43:47;;;;;;;23.90;19.60;;;13.40;99.90;;;;;;5070993;28;20455;-54
2022/09/25 04:46:16;;;;;;;20.70;18.50;;;13.40;99.90;;;;;;5072881;28;20463;-55
2022/09/25 04:48:45;;;;;;;22.17;19.30;;;13.50;99.90;;;;;;5072766;28;20518;-55
2022/09/25 04:51:12;;;;;;;24.87;20.50;;;13.40;99.90;;;;;;5070793;28;20483;-55
2022/09/25 04:53:40;;;;;;;26.33;21.23;;;13.40;99.90;;;;;;5072660;28;20527;-55
2022/09/25 04:56:10;;;;;;;24.17;21.23;;;13.40;99.90;;;;;;5072995;28;20501;-55
2022/09/25 04:58:37;;;;;;;22.00;18.00;;;13.50;99.90;;;;;;5070941;28;20472;-55
2022/09/25 05:01:09;;;;;;;22.03;19.60;;;13.50;99.90;;;;;;5072460;28;20449;-55
2022/09/25 05:03:36;;;;;;;22.00;19.60;;;13.50;99.90;;;;;;5072723;28;20843;-55
2022/09/25 05:06:04;;;;;;;21.20;19.00;;;13.40;99.90;;;;;;5070638;28;20539;-55
2022/09/25 05:08:31;;;;;;;25.43;21.37;;;13.40;99.90;;;;;;5072469;28;20541;-55
2022/09/25 05:10:58;;;;;;;23.80;20.90;;;13.30;99.90;;;;;;5072470;28;20483;-55
2022/09/25 05:13:26;;;;;;;22.57;19.87;;;13.30;99.90;;;;;;5070471;28;20478;-55
2022/09/25 05:15:55;;;;;;;21.20;17.13;;;13.20;99.90;;;;;;5072524;28;20448;-55
2022/09/25 05:18:24;;;;;;;19.47;17.40;;;13.20;99.90;;;;;;5072523;28;20547;-55
2022/09/25 05:20:52;;;;;;;23.07;18.03;;;13.10;99.90;;;;;;5069785;28;20455;-55
2022/09/25 05:23:19;;;;;;;23.70;18.73;;;13.10;99.90;;;;;;5072430;28;20498;-55
2022/09/25 05:25:51;;;;;;;25.17;21.33;;;13.20;99.90;;;;;;5072398;28;20479;-55
2022/09/25 05:28:19;;;;;;;25.00;18.20;;;13.30;99.90;;;;;;5069482;28;20527;-55
2022/09/25 05:30:46;;;;;;;21.93;19.63;;;13.30;99.90;;;;;;5072210;28;20484;-55
2022/09/25 05:33:13;;;;;;;25.83;20.30;;;13.30;99.90;;;;;;5071610;28;21001;-55
2022/09/25 05:35:41;;;;;;;23.90;18.30;;;13.30;99.90;;;;;;5069880;28;20445;-56
2022/09/25 05:38:08;;;;;;;23.67;19.20;;;13.20;99.90;;;;;;5072097;28;20479;-56
2022/09/25 05:40:37;;;;;;;21.80;18.37;;;13.20;99.90;;;;;;5071817;28;20444;-55
2022/09/25 05:43:05;;;;;;;20.80;18.53;;;13.30;99.90;;;;;;5069576;28;21034;-56
2022/09/25 05:45:33;;;;;;;22.57;19.10;;;13.20;99.90;;;;;;5071971;28;20451;-56
2022/09/25 05:48:01;;;;;;;21.10;17.93;;;13.20;99.90;;;;;;5071616;28;20476;-56
2022/09/25 05:50:31;;;;;;;20.87;18.63;;;13.20;99.90;;;;;;5069688;28;20572;-56
2022/09/25 05:53:00;;;;;;;27.03;19.30;;;13.20;99.90;;;;;;5071871;28;20989;-55
2022/09/25 05:55:27;;;;;;;22.07;17.97;;;13.30;99.90;;;;;;5071473;28;20451;-56
2022/09/25 05:57:59;;;;;;;24.33;20.10;;;13.30;99.90;;;;;;5069549;28;20444;-56
2022/09/25 06:00:26;;;;;;;15.23;13.67;;;13.30;99.90;;;;;;5071610;28;20448;-56
2022/09/25 06:02:54;;;;;;;16.47;14.70;;;13.30;99.90;;;;;;5071290;28;20468;-57
2022/09/25 06:05:21;;;;;;;17.10;14.37;;;13.40;99.90;;;;;;5069470;28;20444;-54
2022/09/25 06:07:53;;;;;;;16.50;14.57;;;13.30;99.90;;;;;;5071530;28;20528;-55
2022/09/25 06:10:21;;;;;;;15.20;13.57;;;13.30;99.90;;;;;;5071220;28;20464;-54
2022/09/25 06:12:48;;;;;;;15.20;13.57;;;13.30;99.90;;;;;;5069400;28;20469;-54
2022/09/25 06:15:16;;;;;;;17.43;12.60;;;13.30;99.90;;;;;;5071405;28;20451;-56
2022/09/25 06:17:43;;;;;;;18.03;13.60;;;13.40;99.90;;;;;;5071227;28;20802;-56
2022/09/25 06:20:11;;;;;;;18.20;12.27;;;13.40;99.90;;;;;;5068917;28;20444;-57
2022/09/25 06:22:38;;;;;;;15.70;13.47;;;13.40;99.90;;;;;;5070934;28;20468;-55
2022/09/25 06:25:06;;;;;;;14.83;13.37;;;13.40;99.90;;;;;;5070818;28;20432;-54
2022/09/25 06:27:35;;;;;;;13.83;12.40;;;13.50;99.90;;;;;;5069204;28;20551;-55
2022/09/25 06:30:02;;;;;;;16.20;14.50;;;13.50;99.90;;;;;;5070789;28;20484;-55
2022/09/25 06:32:29;;;;;;;15.80;13.30;;;13.60;99.90;;;;;;5070944;28;20503;-55
2022/09/25 06:34:56;;;;;;;15.40;13.80;;;13.70;99.90;;;;;;5069013;28;20531;-55
2022/09/25 06:37:23;;;;;;;15.53;13.70;;;13.70;99.90;;;;;;5070319;28;20448;-55
2022/09/25 06:39:50;;;;;;;16.10;14.40;;;13.60;99.90;;;;;;5070831;28;20488;-55
2022/09/25 06:42:18;;;;;;;16.40;14.03;;;13.70;99.90;;;;;;5068797;28;21005;-56
2022/09/25 06:44:46;;;;;;;15.97;14.30;;;13.70;99.90;;;;;;5070532;28;20447;-55
2022/09/25 06:47:13;;;;;;;14.87;12.90;;;13.70;99.90;;;;;;5070653;28;20479;-55
2022/09/25 06:49:40;;;;;;;13.10;11.70;;;13.70;99.90;;;;;;5068723;28;20516;-55
2022/09/25 06:52:08;;;;;;;15.00;13.40;;;13.80;99.90;;;;;;5070425;28;20546;-55
2022/09/25 06:54:35;;;;;;;14.40;12.90;;;13.80;99.90;;;;;;5070147;28;20448;-55
2022/09/25 06:57:02;;;;;;;16.67;14.90;;;13.80;99.90;;;;;;5068517;28;20827;-54
2022/09/25 06:59:30;;;;;;;14.53;13.00;;;13.80;99.90;;;;;;5070484;28;20459;-55
2022/09/25 07:03:43;;;;;;;16.40;14.37;;;13.80;99.90;;;;;;5070387;28;20499;-55
2022/09/25 07:04:44;;;;;;;14.23;12.73;;;13.80;99.90;;;;;;5067808;28;20425;-55
2022/09/25 07:07:12;;;;;;;13.93;12.63;;;13.80;99.90;;;;;;5070208;28;20437;-55
2022/09/25 07:09:39;;;;;;;13.13;11.87;;;13.80;99.90;;;;;;5070629;28;20448;-55
2022/09/25 07:12:07;;;;;;;14.60;13.00;;;13.80;99.90;;;;;;5067788;28;20480;-55
2022/09/25 07:14:34;;;;;;;17.40;13.43;;;13.80;99.90;;;;;;5070325;28;20521;-55
2022/09/25 07:17:02;;;;;;;15.33;13.10;;;13.80;99.90;;;;;;5070454;28;20939;-55
2022/09/25 07:19:30;;;;;;;18.67;14.03;;;13.80;99.90;;;;;;5067760;28;20988;-54
2022/09/25 07:21:58;;;;;;;16.50;12.80;;;13.80;99.90;;;;;;5070252;28;20819;-55
2022/09/25 07:24:25;;;;;;;17.23;14.77;;;13.80;99.90;;;;;;5070493;28;20448;-54
2022/09/25 07:26:52;;;;;;;16.23;13.33;;;13.80;99.90;;;;;;5067659;28;21033;-55
2022/09/25 07:29:19;;;;;;;15.30;13.70;;;13.90;99.90;;;;;;5069977;28;20834;-55
2022/09/25 07:31:47;;;;;;;15.43;12.97;;;13.90;99.90;;;;;;5069314;28;20874;-55
2022/09/25 07:34:15;;;;;;;15.00;13.40;;;13.90;99.90;;;;;;5067393;28;20540;-55
2022/09/25 07:36:42;;;;;;;14.67;12.23;;;14.00;99.90;;;;;;5070121;28;20440;-55
2022/09/25 07:39:10;;;;;;;14.30;12.80;;;14.10;99.90;;;;;;5070327;28;20525;-55
2022/09/25 07:41:37;;;;;;;14.97;13.20;;;14.00;99.90;;;;;;5067811;28;20476;-55
2022/09/25 07:44:05;;;;;;;14.53;11.00;;;14.10;99.90;;;;;;5070023;28;20455;-54
2022/09/25 07:46:32;;;;;;;14.10;12.70;;;14.10;99.90;;;;;;5069856;28;20458;-55
2022/09/25 07:48:59;;;;;;;14.13;12.10;;;14.10;99.90;;;;;;5067647;28;20607;-56
2022/09/25 07:51:28;;;;;;;14.50;11.90;;;14.20;99.90;;;;;;5069896;28;20858;-56
2022/09/25 07:53:55;;;;;;;12.60;11.30;;;14.30;99.90;;;;;;5069815;28;20448;-55
2022/09/25 07:56:22;;;;;;;11.53;10.50;;;14.40;99.90;;;;;;5067901;28;20479;-56
2022/09/25 07:58:53;;;;;;;11.47;9.93;;;14.30;99.90;;;;;;5070009;28;20451;-56
2022/09/25 08:01:20;;;;;;;14.43;10.60;;;14.30;99.90;;;;;;5069232;28;20521;-55
2022/09/25 08:03:48;;;;;;;11.47;10.20;;;14.30;99.90;;;;;;5067729;28;20445;-56
2022/09/25 08:06:15;;;;;;;12.00;10.80;;;14.30;99.90;;;;;;5069158;28;20453;-55
2022/09/25 08:08:44;;;;;;;13.80;11.43;;;14.20;99.90;;;;;;5069585;28;20448;-56
2022/09/25 08:11:13;;;;;;;13.47;11.70;;;14.20;99.90;;;;;;5067910;28;20484;-56
2022/09/25 08:13:41;;;;;;;13.53;11.47;;;14.30;99.90;;;;;;5069585;28;20456;-56
2022/09/25 08:16:12;;;;;;;11.37;10.10;;;14.40;99.90;;;;;;5069503;28;20450;-55
2022/09/25 08:18:40;;;;;;;13.70;10.90;;;14.50;99.90;;;;;;5067808;28;20432;-55
2022/09/25 08:21:08;;;;;;;12.97;10.63;;;14.50;99.90;;;;;;5069763;28;20535;-55
2022/09/25 08:23:35;;;;;;;12.43;9.83;;;14.50;99.90;;;;;;5069255;28;20444;-55
2022/09/25 08:26:04;;;;;;;9.60;8.20;;;14.40;99.90;;;;;;5067520;28;20444;-56
2022/09/25 08:28:31;;;;;;;10.57;9.30;;;14.50;99.90;;;;;;5069596;28;20460;-56
2022/09/25 08:30:59;;;;;;;12.40;9.93;;;14.50;99.90;;;;;;5069162;28;20492;-56
2022/09/25 08:33:26;;;;;;;8.63;7.80;;;14.40;99.90;;;;;;5067248;28;20505;-55
2022/09/25 08:35:57;;;;;;;9.07;7.60;;;14.40;99.90;;;;;;5069587;28;20919;-56
2022/09/25 08:38:25;;;;;;;8.90;8.00;;;14.40;99.90;;;;;;5069256;28;20536;-55
2022/09/25 08:40:56;;;;;;;8.03;7.30;;;14.40;99.90;;;;;;5066444;28;20458;-55
2022/09/25 08:43:26;;;;;;;9.27;8.37;;;14.50;99.90;;;;;;5072191;28;20424;-55
2022/09/25 08:49:05;;;;;;;8.07;7.27;;;14.70;99.90;;;;;;5071161;28;20467;-56
2022/09/25 08:51:36;;;;;;;8.63;7.83;;;14.80;99.90;;;;;;5072789;28;20506;-56
2022/09/25 08:54:05;;;;;;;8.73;7.53;;;15.00;99.90;;;;;;5070932;28;20736;-56
2022/09/25 08:56:34;;;;;;;8.17;7.47;;;15.10;99.90;;;;;;5072634;28;20452;-56
2022/09/25 08:59:09;;;;;;;10.30;8.10;;;15.10;99.90;;;;;;5072823;28;20489;-55
2022/09/25 09:01:46;;;;;;;7.70;6.93;;;15.00;99.90;;;;;;5070714;28;20653;-55
2022/09/25 09:04:19;;;;;;;7.90;7.20;;;15.00;99.90;;;;;;5072152;28;20437;-55
2022/09/25 09:06:52;;;;;;;9.90;7.93;;;15.00;99.90;;;;;;5072727;28;20429;-55
2022/09/25 09:09:24;;;;;;;8.80;7.23;;;15.10;99.90;;;;;;5070470;28;20432;-55
2022/09/25 09:11:57;;;;;;;27.97;17.43;;;15.30;99.90;;;;;;5072197;28;20574;-55
2022/09/25 09:14:30;;;;;;;61.90;34.80;;;15.40;99.90;;;;;;5072715;28;20500;-56
2022/09/25 09:17:01;;;;;;;35.63;23.43;;;15.50;99.90;;;;;;5070466;28;20444;-55
2022/09/25 09:19:28;;;;;;;11.30;9.63;;;15.60;99.90;;;;;;5072195;28;20444;-56
2022/09/25 09:22:03;;;;;;;10.33;7.03;;;15.80;99.90;;;;;;5072408;28;20999;-55
2022/09/25 09:24:41;;;;;;;9.40;8.27;;;16.00;99.90;;;;;;5069949;28;20840;-56
2022/09/25 09:27:31;;;;;;;9.30;8.10;;;16.10;99.90;;;;;;5072438;28;20439;-55
2022/09/25 09:30:10;;;;;;;8.60;7.80;;;16.00;99.90;;;;;;5072357;28;20523;-56
2022/09/25 09:33:04;;;;;;;9.67;7.30;;;16.10;99.90;;;;;;5069577;28;20487;-56
2022/09/25 09:35:47;;;;;;;8.20;7.30;;;16.10;99.90;;;;;;5072035;28;20421;-55
2022/09/25 09:38:32;;;;;;;8.20;7.43;;;16.20;99.90;;;;;;5070030;28;20519;-56
2022/09/25 09:41:21;;;;;;;8.40;7.50;;;16.10;99.90;;;;;;5072032;28;20452;-56
2022/09/25 09:44:18;;;;;;;8.10;7.33;;;16.00;99.90;;;;;;5072189;28;20958;-55
2022/09/25 09:46:57;;;;;;;8.40;6.47;;;15.90;99.90;;;;;;5068546;28;20452;-56
2022/09/25 09:49:31;;;;;;;8.23;7.43;;;15.80;99.90;;;;;;5072008;28;20428;-55
2022/09/25 09:52:02;;;;;;;9.07;8.17;;;15.80;99.90;;;;;;5071815;28;20483;-56
2022/09/25 09:54:35;;;;;;;7.33;6.63;;;15.60;99.90;;;;;;5068596;28;20445;-55
2022/09/25 09:57:10;;;;;;;8.13;6.80;;;15.50;99.90;;;;;;5071860;28;20440;-55
2022/09/25 09:59:45;;;;;;;8.70;7.90;;;15.40;99.90;;;;;;5071256;28;20452;-56
2022/09/25 10:02:32;;;;;;;14.73;8.17;;;15.30;99.90;;;;;;5069293;28;20819;-55
2022/09/25 10:05:02;;;;;;;8.57;7.77;;;15.30;99.90;;;;;;5071648;28;20428;-56
2022/09/25 10:07:32;;;;;;;8.13;7.33;;;15.20;99.90;;;;;;5071201;28;20461;-55
2022/09/25 10:09:59;;;;;;;8.70;7.80;;;15.20;99.90;;;;;;5069450;28;20455;-55
2022/09/25 10:12:30;;;;;;;8.87;7.97;;;15.30;99.90;;;;;;5071205;28;20483;-55
2022/09/25 10:15:01;;;;;;;8.70;7.80;;;15.30;99.90;;;;;;5071332;28;20436;-56
2022/09/25 10:17:30;;;;;;;10.37;9.53;;;15.60;99.90;;;;;;5069610;28;20504;-55
2022/09/25 10:20:00;;;;;;;11.73;8.73;;;15.80;99.90;;;;;;5071310;28;20448;-55
2022/09/25 10:22:30;;;;;;;9.00;8.10;;;16.10;99.90;;;;;;5070323;28;20468;-55
2022/09/25 10:25:01;;;;;;;10.50;7.93;;;16.30;99.90;;;;;;5070599;28;20519;-55
2022/09/25 10:27:31;;;;;;;10.20;8.03;;;16.50;99.90;;;;;;5071252;28;20425;-55
2022/09/25 10:30:21;;;;;;;10.50;9.60;;;16.80;99.90;;;;;;5068984;28;20980;-55
2022/09/25 10:32:59;;;;;;;9.10;8.00;;;16.80;99.90;;;;;;5074169;28;20526;-55
2022/09/25 10:35:31;;;;;;;11.10;8.63;;;16.80;99.90;;;;;;5093395;28;20466;-55
2022/09/25 10:38:01;;;;;;;17.83;15.77;;;16.70;99.90;;;;;;5091201;28;20438;-56
2022/09/25 10:40:32;;;;;;;12.23;11.03;;;16.50;99.90;;;;;;5093742;28;20474;-56
2022/09/25 10:43:15;;;;;;;9.40;8.50;;;16.10;99.90;;;;;;5093161;28;20470;-56
2022/09/25 10:45:43;;;;;;;10.83;8.90;;;16.00;99.90;;;;;;5091323;28;20439;-55
2022/09/25 10:51:16;;;;;;;11.23;8.90;;;15.60;99.90;;;;;;5092716;28;20949;-55
2022/09/25 10:53:43;;;;;;;12.50;9.53;;;15.40;99.90;;;;;;5090932;28;20509;-55
2022/09/25 10:56:14;;;;;;;17.00;11.60;;;15.40;99.90;;;;;;5093474;28;20447;-55
2022/09/25 10:58:43;;;;;;;10.83;9.83;;;15.40;99.90;;;;;;5093564;28;20447;-55
2022/09/25 11:01:13;;;;;;;11.77;10.57;;;15.30;99.90;;;;;;5091293;28;20508;-55
2022/09/25 11:03:50;;;;;;;11.30;10.20;;;15.10;99.90;;;;;;5092734;28;20496;-55
2022/09/25 11:06:20;;;;;;;15.73;11.67;;;15.10;99.90;;;;;;5093074;28;20432;-55
2022/09/25 11:08:54;;;;;;;13.30;11.53;;;14.90;99.90;;;;;;5091003;28;20455;-55
2022/09/25 11:11:25;;;;;;;13.60;12.17;;;15.00;99.90;;;;;;5092623;28;20521;-55
2022/09/25 11:13:57;;;;;;;14.57;13.03;;;15.10;99.90;;;;;;5092738;28;20481;-55
2022/09/25 11:16:45;;;;;;;14.73;13.17;;;15.10;99.90;;;;;;5091239;28;20434;-55
2022/09/25 11:19:16;;;;;;;21.93;15.67;;;15.00;99.90;;;;;;5091945;28;20431;-55
2022/09/25 11:21:56;;;;;;;16.93;15.17;;;14.80;99.90;;;;;;5091301;28;20455;-55
2022/09/25 11:24:29;;;;;;;18.80;15.47;;;14.80;99.90;;;;;;5091953;28;20423;-55
2022/09/25 11:27:11;;;;;;;18.87;15.07;;;14.80;99.90;;;;;;5092094;28;20522;-55
2022/09/25 11:29:49;;;;;;;20.13;15.00;;;14.80;99.90;;;;;;5090849;28;20534;-55
2022/09/25 11:32:24;;;;;;;16.97;15.17;;;14.80;99.90;;;;;;5092371;28;20505;-55
2022/09/25 11:35:21;;;;;;;17.50;15.70;;;14.80;99.90;;;;;;5092648;28;20514;-55
2022/09/25 11:37:58;;;;;;;23.67;21.17;;;14.90;99.90;;;;;;5077788;28;20853;-56
2022/09/25 11:43:25;;;;;;;20.07;16.47;;;14.80;99.90;;;;;;5092535;28;20775;-55
2022/09/25 11:45:58;;;;;;;17.60;15.50;;;14.70;99.90;;;;;;5090235;28;20419;-55
2022/09/25 11:48:33;;;;;;;23.90;21.20;;;14.70;99.90;;;;;;5092546;28;20479;-55
2022/09/25 11:51:13;;;;;;;30.17;25.10;;;14.80;99.90;;;;;;5092778;28;20482;-55
2022/09/25 11:53:47;;;;;;;20.20;18.10;;;14.80;99.90;;;;;;5090563;28;20621;-54
2022/09/25 11:56:26;;;;;;;20.00;16.80;;;14.90;99.90;;;;;;5092453;28;21080;-55
2022/09/25 11:59:10;;;;;;;18.57;16.47;;;14.90;99.90;;;;;;5090522;28;20796;-55
2022/09/25 12:01:45;;;;;;;17.33;15.53;;;15.00;99.90;;;;;;5092602;28;20481;-55
2022/09/25 12:04:31;;;;;;;21.47;17.97;;;15.10;99.90;;;;;;5092091;28;20433;-55
2022/09/25 12:07:26;;;;;;;19.97;17.03;;;15.10;99.90;;;;;;5089831;28;20523;-55
2022/09/25 12:10:10;;;;;;;19.63;16.47;;;15.00;99.90;;;;;;5092622;28;20431;-55
2022/09/25 12:12:47;;;;;;;22.83;17.57;;;15.00;99.90;;;;;;5092181;28;20735;-56
2022/09/25 12:15:21;;;;;;;18.20;15.80;;;15.00;99.90;;;;;;5090272;28;20423;-55
2022/09/25 12:18:04;;;;;;;20.80;17.60;;;15.20;99.90;;;;;;5095214;28;20427;-55
2022/09/25 12:20:36;;;;;;;20.13;16.57;;;15.30;99.90;;;;;;5095994;28;20438;-55
2022/09/25 12:23:17;;;;;;;19.03;17.00;;;15.30;99.90;;;;;;5094076;28;20548;-55
2022/09/25 12:26:11;;;;;;;21.07;16.87;;;15.30;99.90;;;;;;5096276;28;20597;-55
2022/09/25 12:28:51;;;;;;;18.50;15.30;;;15.40;99.90;;;;;;5094127;28;20443;-55
2022/09/25 12:31:26;;;;;;;16.27;14.67;;;15.50;99.90;;;;;;5096295;28;20482;-55
2022/09/25 12:34:00;;;;;;;18.57;16.63;;;15.60;99.90;;;;;;5095389;28;20898;-55
2022/09/25 12:36:35;;;;;;;18.40;16.70;;;15.80;99.90;;;;;;5093522;28;20459;-55
2022/09/25 12:39:27;;;;;;;19.63;16.03;;;16.00;99.90;;;;;;5096005;28;20423;-55
2022/09/25 12:42:05;;;;;;;18.00;15.80;;;16.80;99.90;;;;;;5095378;28;20463;-56
2022/09/25 12:44:41;;;;;;;17.23;14.80;;;17.60;99.90;;;;;;5093621;28;20435;-56
2022/09/25 12:47:14;;;;;;;15.07;11.50;;;19.00;99.90;;;;;;5095643;28;20428;-57
2022/09/25 12:49:46;;;;;;;13.30;12.03;;;19.60;99.90;;;;;;5095504;28;20419;-56
2022/09/25 12:52:17;;;;;;;13.30;12.00;;;19.40;99.90;;;;;;5093376;28;20491;-56
2022/09/25 12:54:56;;;;;;;14.20;12.70;;;19.30;99.90;;;;;;5095386;28;20806;-56
2022/09/25 12:57:26;;;;;;;14.67;12.97;;;19.20;99.90;;;;;;5095352;28;20438;-55
2022/09/25 12:59:59;;;;;;;17.93;13.07;;;18.80;99.90;;;;;;5093554;28;20493;-55
2022/09/25 13:02:34;;;;;;;14.27;12.07;;;18.50;99.90;;;;;;5095400;28;20467;-55
2022/09/25 13:05:08;;;;;;;12.43;11.20;;;18.10;99.90;;;;;;5095197;28;20530;-56
2022/09/25 13:07:42;;;;;;;12.97;11.70;;;18.20;99.90;;;;;;5093296;28;20457;-56